createdAt,value
2023-01-17T00:00:01.146Z,97219.13
2023-01-17T00:02:30.904Z,97219.78
2023-01-17T00:05:16.281Z,97216.66
2023-01-17T00:08:00.976Z,97218.50
2023-01-17T00:10:28.571Z,97218.66
2023-01-17T00:13:00.424Z,97220.13
2023-01-17T00:15:28.320Z,97219.72
2023-01-17T00:17:55.191Z,97230.47
2023-01-17T00:20:42.836Z,97223.94
2023-01-17T00:23:33.150Z,97222.41
2023-01-17T00:26:05.354Z,97224.41
2023-01-17T00:28:40.213Z,97232.47
2023-01-17T00:31:08.826Z,97229.00
2023-01-17T00:33:35.678Z,97237.06
2023-01-17T00:36:03.053Z,97228.66
2023-01-17T00:38:32.213Z,97236.16
2023-01-17T00:41:02.372Z,97229.53
2023-01-17T00:43:48.413Z,97226.25
2023-01-17T00:46:33.697Z,97233.56
2023-01-17T00:49:18.970Z,97242.06
2023-01-17T00:52:03.755Z,97237.03
2023-01-17T00:54:48.610Z,97234.53
2023-01-17T00:57:33.338Z,97231.06
2023-01-17T01:00:18.060Z,97241.41
2023-01-17T01:03:03.362Z,97243.53
2023-01-17T01:05:48.675Z,97247.34
2023-01-17T01:08:42.623Z,97252.72
2023-01-17T01:11:33.406Z,97259.94
2023-01-17T01:14:19.161Z,97260.56
2023-01-17T01:17:04.955Z,97267.88
2023-01-17T01:19:50.040Z,97271.34
2023-01-17T01:22:34.685Z,97268.66
2023-01-17T01:25:19.890Z,97268.75
2023-01-17T01:28:04.534Z,97274.25
2023-01-17T01:30:49.322Z,97272.31
2023-01-17T01:33:18.806Z,97278.06
2023-01-17T01:35:47.615Z,97280.06
2023-01-17T01:38:13.999Z,97287.91
2023-01-17T01:40:48.261Z,97287.22
2023-01-17T01:43:16.883Z,97285.59
2023-01-17T01:45:53.053Z,97286.28
2023-01-17T01:48:48.734Z,97286.19
2023-01-17T01:51:21.292Z,97299.66
2023-01-17T01:53:50.958Z,97297.28
2023-01-17T01:56:19.944Z,97309.31
2023-01-17T01:58:51.832Z,97301.59
2023-01-17T02:01:18.605Z,97316.53
2023-01-17T02:03:46.700Z,97308.47
2023-01-17T02:06:28.729Z,97307.13
2023-01-17T02:08:59.745Z,97309.81
2023-01-17T02:11:27.063Z,97317.09
2023-01-17T02:13:53.439Z,97321.59
2023-01-17T02:16:46.048Z,97310.63
2023-01-17T02:19:30.879Z,97335.63
2023-01-17T02:22:27.179Z,97327.00
2023-01-17T02:24:53.583Z,97326.47
2023-01-17T02:27:27.239Z,97336.66
2023-01-17T02:30:21.585Z,97346.75
2023-01-17T02:33:15.291Z,97338.34
2023-01-17T02:36:08.043Z,97361.78
2023-01-17T02:38:54.890Z,97359.75
2023-01-17T02:41:25.052Z,97360.88
2023-01-17T02:43:52.401Z,97347.09
2023-01-17T02:46:18.921Z,97368.28
2023-01-17T02:48:46.804Z,97375.09
2023-01-17T02:51:41.954Z,97361.22
2023-01-17T02:54:23.735Z,97361.13
2023-01-17T02:57:01.414Z,97356.84
2023-01-17T02:59:34.163Z,97373.44
2023-01-17T03:02:09.969Z,97368.50
2023-01-17T03:04:40.492Z,97369.50
2023-01-17T03:07:16.290Z,97380.41
2023-01-17T03:09:45.867Z,97373.00
2023-01-17T03:12:13.280Z,97376.13
2023-01-17T03:14:39.776Z,97371.53
2023-01-17T03:17:06.407Z,97384.41
2023-01-17T03:19:32.871Z,97373.22
2023-01-17T03:21:59.326Z,97380.41
2023-01-17T03:24:25.691Z,97387.31
2023-01-17T03:26:52.137Z,97399.78
2023-01-17T03:29:18.586Z,97409.22
2023-01-17T03:31:45.228Z,97407.72
2023-01-17T03:34:11.644Z,97409.31
2023-01-17T03:36:38.197Z,97413.91
2023-01-17T03:39:04.670Z,97416.72
2023-01-17T03:41:31.562Z,97425.13
2023-01-17T03:43:57.980Z,97422.22
2023-01-17T03:46:26.286Z,97426.56
2023-01-17T03:48:55.416Z,97431.41
2023-01-17T03:51:21.853Z,97428.38
2023-01-17T03:53:48.345Z,97431.94
2023-01-17T03:56:14.851Z,97441.59
2023-01-17T03:58:41.469Z,97438.44
2023-01-17T04:01:08.336Z,97448.88
2023-01-17T04:03:34.823Z,97464.25
2023-01-17T04:06:01.362Z,97453.06
2023-01-17T04:08:28.188Z,97455.28
2023-01-17T04:10:54.599Z,97456.28
2023-01-17T04:13:20.963Z,97457.41
2023-01-17T04:15:49.052Z,97444.06
2023-01-17T04:18:18.098Z,97443.06
2023-01-17T04:20:44.746Z,97456.63
2023-01-17T04:23:11.417Z,97457.28
2023-01-17T04:25:37.876Z,97472.44
2023-01-17T04:28:04.423Z,97470.72
2023-01-17T04:30:32.565Z,97488.03
2023-01-17T04:32:59.204Z,97475.00
2023-01-17T04:35:25.981Z,97473.88
2023-01-17T04:37:52.881Z,97470.84
2023-01-17T04:40:19.557Z,97485.69
2023-01-17T04:42:46.483Z,97475.00
2023-01-17T04:45:14.078Z,97494.97
2023-01-17T04:47:40.582Z,97483.19
2023-01-17T04:50:08.011Z,97484.78
2023-01-17T04:52:34.424Z,97486.69
2023-01-17T04:55:00.934Z,97487.81
2023-01-17T04:57:27.421Z,97505.41
2023-01-17T04:59:53.801Z,97496.34
2023-01-17T05:02:20.362Z,97491.59
2023-01-17T05:04:46.833Z,97494.63
2023-01-17T05:07:13.284Z,97507.22
2023-01-17T05:09:39.761Z,97494.53
2023-01-17T05:12:06.276Z,97503.03
2023-01-17T05:14:34.339Z,97505.97
2023-01-17T05:17:03.061Z,97512.13
2023-01-17T05:19:29.689Z,97517.19
2023-01-17T05:21:56.151Z,97514.81
2023-01-17T05:24:22.614Z,97517.50
2023-01-17T05:26:54.659Z,97518.03
2023-01-17T05:29:21.669Z,97533.41
2023-01-17T05:31:48.266Z,97529.94
2023-01-17T05:34:14.656Z,97525.69
2023-01-17T05:36:41.257Z,97537.66
2023-01-17T05:39:07.723Z,97536.31
2023-01-17T05:41:34.117Z,97543.34
2023-01-17T05:44:00.540Z,97547.63
2023-01-17T05:46:27.003Z,97547.19
2023-01-17T05:48:53.403Z,97539.53
2023-01-17T05:51:19.802Z,97550.19
2023-01-17T05:53:46.252Z,97559.25
2023-01-17T05:56:12.715Z,97568.56
2023-01-17T05:58:40.061Z,97565.88
2023-01-17T06:01:06.579Z,97583.78
2023-01-17T06:03:33.095Z,97584.56
2023-01-17T06:05:59.572Z,97591.84
2023-01-17T06:08:26.081Z,97603.72
2023-01-17T06:10:52.578Z,97610.13
2023-01-17T06:13:21.927Z,97622.88
2023-01-17T06:15:48.842Z,97630.13
2023-01-17T06:18:19.482Z,97635.97
2023-01-17T06:20:46.049Z,97638.19
2023-01-17T06:23:14.367Z,97631.22
2023-01-17T06:25:46.583Z,97640.88
2023-01-17T06:28:15.689Z,97649.28
2023-01-17T06:30:43.777Z,97654.31
2023-01-17T06:33:11.323Z,97646.78
2023-01-17T06:35:40.140Z,97652.47
2023-01-17T06:38:07.318Z,97668.44
2023-01-17T06:40:33.788Z,97668.75
2023-01-17T06:43:01.907Z,97665.09
2023-01-17T06:45:32.457Z,97683.31
2023-01-17T06:48:00.748Z,97674.66
2023-01-17T06:50:27.566Z,97685.75
2023-01-17T06:52:59.708Z,97687.66
2023-01-17T06:55:31.033Z,97690.06
2023-01-17T06:57:59.635Z,97696.44
2023-01-17T07:00:27.545Z,97694.72
2023-01-17T07:02:54.623Z,97709.59
2023-01-17T07:05:21.655Z,97709.13
2023-01-17T07:07:48.710Z,97697.72
2023-01-17T07:10:16.041Z,97702.19
2023-01-17T07:12:42.729Z,97705.53
2023-01-17T07:15:10.100Z,97709.00
2023-01-17T07:17:36.906Z,97714.75
2023-01-17T07:20:03.856Z,97716.31
2023-01-17T07:22:30.672Z,97720.13
2023-01-17T07:24:58.861Z,97713.03
2023-01-17T07:27:27.847Z,97722.69
2023-01-17T07:29:54.834Z,97743.06
2023-01-17T07:32:21.978Z,97728.84
2023-01-17T07:34:48.648Z,97735.19
2023-01-17T07:37:15.538Z,97743.56
2023-01-17T07:39:42.399Z,97755.41
2023-01-17T07:42:11.806Z,97754.78
2023-01-17T07:44:41.385Z,97759.06
2023-01-17T07:47:08.426Z,97766.47
2023-01-17T07:49:35.017Z,97760.31
2023-01-17T07:52:03.632Z,97770.91
2023-01-17T07:54:30.205Z,97756.84
2023-01-17T07:56:56.857Z,97757.41
2023-01-17T07:59:23.473Z,97764.25
2023-01-17T08:01:50.255Z,97760.16
2023-01-17T08:04:16.973Z,97769.63
2023-01-17T08:06:47.635Z,97774.75
2023-01-17T08:09:14.474Z,97763.38
2023-01-17T08:11:41.064Z,97764.03
2023-01-17T08:14:07.804Z,97778.03
2023-01-17T08:16:34.420Z,97774.59
2023-01-17T08:19:01.046Z,97779.00
2023-01-17T08:21:27.704Z,97790.31
2023-01-17T08:23:54.365Z,97782.03
2023-01-17T08:26:22.517Z,97793.69
2023-01-17T08:29:02.671Z,97796.13
2023-01-17T08:31:33.994Z,97800.16
2023-01-17T08:34:01.674Z,97808.34
2023-01-17T08:36:28.985Z,97814.03
2023-01-17T08:38:55.833Z,97813.22
2023-01-17T08:41:24.181Z,97820.53
2023-01-17T08:43:52.000Z,97827.88
2023-01-17T08:46:19.283Z,97835.31
2023-01-17T08:48:46.336Z,97842.44
2023-01-17T08:51:12.946Z,97845.13
2023-01-17T08:53:40.704Z,97853.19
2023-01-17T08:56:07.528Z,97851.19
2023-01-17T08:58:35.861Z,97861.47
2023-01-17T09:01:05.661Z,97866.88
2023-01-17T09:03:34.115Z,97858.63
2023-01-17T09:06:01.664Z,97871.13
2023-01-17T09:08:28.222Z,97872.03
2023-01-17T09:10:54.827Z,97875.84
2023-01-17T09:13:24.245Z,97873.97
2023-01-17T09:15:50.895Z,97887.59
2023-01-17T09:18:17.531Z,97887.78
2023-01-17T09:20:44.298Z,97901.53
2023-01-17T09:23:11.027Z,97910.38
2023-01-17T09:25:39.939Z,97893.19
2023-01-17T09:28:06.556Z,97909.44
2023-01-17T09:30:33.219Z,97907.78
2023-01-17T09:32:59.822Z,97907.97
2023-01-17T09:35:26.322Z,97908.38
2023-01-17T09:37:53.105Z,97908.25
2023-01-17T09:40:24.894Z,97910.44
2023-01-17T09:42:58.122Z,97909.13
2023-01-17T09:45:27.442Z,97911.16
2023-01-17T09:47:54.936Z,97915.00
2023-01-17T09:50:37.880Z,97920.03
2023-01-17T09:53:07.504Z,97921.88
2023-01-17T09:55:44.128Z,97929.84
2023-01-17T09:58:19.318Z,97923.22
2023-01-17T10:01:03.592Z,97928.19
2023-01-17T10:03:44.183Z,97934.69
2023-01-17T10:06:36.145Z,97941.53
2023-01-17T10:09:35.147Z,97940.72
2023-01-17T10:12:01.738Z,97944.03
2023-01-17T10:14:55.839Z,97940.88
2023-01-17T10:17:45.572Z,97943.72
2023-01-17T10:20:46.094Z,97939.75
2023-01-17T10:23:25.759Z,97938.38
2023-01-17T10:25:56.381Z,97940.28
2023-01-17T10:28:40.852Z,97940.16
2023-01-17T10:31:12.925Z,97934.53
2023-01-17T10:34:37.820Z,97928.38
2023-01-17T10:37:17.930Z,97927.25
2023-01-17T10:39:47.820Z,97918.72
2023-01-17T10:42:25.803Z,97922.19
2023-01-17T10:45:15.323Z,97922.59
2023-01-17T10:47:46.831Z,97920.81
2023-01-17T10:50:13.717Z,97918.88
2023-01-17T10:52:45.301Z,97916.81
2023-01-17T10:55:40.040Z,97905.34
2023-01-17T10:58:11.757Z,97918.13
2023-01-17T11:00:47.639Z,97917.53
2023-01-17T11:03:17.149Z,97919.78
2023-01-17T11:05:44.320Z,97919.34
2023-01-17T11:08:13.534Z,97918.53
2023-01-17T11:10:40.285Z,97913.53
2023-01-17T11:13:48.548Z,97912.28
2023-01-17T11:16:27.481Z,97908.94
2023-01-17T11:19:17.562Z,97902.78
2023-01-17T11:22:04.965Z,97901.59
2023-01-17T11:24:40.022Z,97902.81
2023-01-17T11:27:08.304Z,97905.59
2023-01-17T11:29:39.027Z,97899.41
2023-01-17T11:32:30.018Z,97894.66
2023-01-17T11:35:20.319Z,97892.06
2023-01-17T11:38:13.168Z,97901.06
2023-01-17T11:40:44.930Z,97899.19
2023-01-17T11:43:11.945Z,97895.25
2023-01-17T11:45:40.419Z,97900.41
2023-01-17T11:48:16.271Z,97889.53
2023-01-17T11:50:56.305Z,97884.44
2023-01-17T11:53:33.429Z,97886.63
2023-01-17T11:56:04.058Z,97880.19
2023-01-17T11:58:33.796Z,97894.19
2023-01-17T12:01:03.773Z,97894.69
2023-01-17T12:03:53.471Z,97898.13
2023-01-17T12:06:57.980Z,97906.31
2023-01-17T12:09:31.424Z,97908.63
2023-01-17T12:12:19.252Z,97909.53
2023-01-17T12:15:27.027Z,97914.16
2023-01-17T12:18:09.836Z,97913.00
2023-01-17T12:21:05.670Z,97910.06
2023-01-17T12:23:51.157Z,97915.84
2023-01-17T12:26:28.879Z,97920.50
2023-01-17T12:28:59.648Z,97916.44
2023-01-17T12:31:33.786Z,97923.69
2023-01-17T12:34:18.927Z,97919.63
2023-01-17T12:37:06.317Z,97915.13
2023-01-17T12:39:44.799Z,97927.28
2023-01-17T12:42:25.995Z,97916.00
2023-01-17T12:45:05.694Z,97921.88
2023-01-17T12:47:37.836Z,97927.38
2023-01-17T12:50:18.953Z,97930.69
2023-01-17T12:53:08.445Z,97929.50
2023-01-17T12:55:53.887Z,97947.41
2023-01-17T12:58:24.796Z,97935.59
2023-01-17T13:01:01.599Z,97941.91
2023-01-17T13:03:48.644Z,97927.16
2023-01-17T13:06:25.081Z,97933.56
2023-01-17T13:08:54.917Z,97940.97
2023-01-17T13:11:28.577Z,97946.69
2023-01-17T13:13:57.619Z,97942.72
2023-01-17T13:16:48.933Z,97945.44
2023-01-17T13:19:42.554Z,97951.44
2023-01-17T13:22:17.508Z,97957.31
2023-01-17T13:24:56.253Z,97952.56
2023-01-17T13:27:33.181Z,97953.16
2023-01-17T13:30:22.068Z,97956.09
2023-01-17T13:33:16.372Z,97965.75
2023-01-17T13:36:25.512Z,97961.94
2023-01-17T13:39:02.525Z,97972.63
2023-01-17T13:41:54.885Z,97967.66
2023-01-17T13:44:27.342Z,97972.94
2023-01-17T13:46:53.689Z,97968.91
2023-01-17T13:49:23.957Z,97971.03
2023-01-17T13:52:26.680Z,97967.00
2023-01-17T13:54:58.323Z,97965.88
2023-01-17T13:57:29.846Z,97973.41
2023-01-17T13:59:58.481Z,97973.28
2023-01-17T14:02:38.780Z,97978.03
2023-01-17T14:05:06.722Z,97976.88
2023-01-17T14:08:09.831Z,97974.63
2023-01-17T14:10:47.212Z,97982.34
2023-01-17T14:13:37.111Z,97977.94
2023-01-17T14:16:24.184Z,97978.63
2023-01-17T14:18:50.815Z,97985.59
2023-01-17T14:21:31.549Z,97981.31
2023-01-17T14:24:10.404Z,97999.41
2023-01-17T14:26:49.631Z,97989.38
2023-01-17T14:29:50.023Z,97990.09
2023-01-17T14:32:22.735Z,97993.53
2023-01-17T14:34:52.091Z,97987.81
2023-01-17T14:37:44.608Z,97997.81
2023-01-17T14:40:18.656Z,98002.19
2023-01-17T14:42:47.157Z,97998.84
2023-01-17T14:45:21.994Z,98004.91
2023-01-17T14:47:48.514Z,98007.59
2023-01-17T14:50:17.655Z,98008.38
2023-01-17T14:52:47.110Z,98018.00
2023-01-17T14:55:20.724Z,98013.38
2023-01-17T14:57:56.645Z,98016.75
2023-01-17T15:00:34.961Z,98023.59
2023-01-17T15:03:02.225Z,98018.19
2023-01-17T15:05:30.222Z,98009.50
2023-01-17T15:07:58.033Z,98008.84
2023-01-17T15:10:30.802Z,98015.03
2023-01-17T15:13:05.396Z,98013.00
2023-01-17T15:15:41.884Z,98006.41
2023-01-17T15:18:14.000Z,98010.28
2023-01-17T15:20:50.053Z,98003.03
2023-01-17T15:23:21.528Z,98003.22
2023-01-17T15:25:50.253Z,98003.41
2023-01-17T15:28:17.389Z,97997.44
2023-01-17T15:31:06.422Z,97999.88
2023-01-17T15:33:34.840Z,97995.94
2023-01-17T15:36:07.124Z,97999.94
2023-01-17T15:38:39.264Z,98005.09
2023-01-17T15:41:10.988Z,98004.78
2023-01-17T15:43:38.697Z,98007.66
2023-01-17T15:46:05.634Z,98015.09
2023-01-17T15:48:44.728Z,98005.63
2023-01-17T15:51:12.848Z,98015.44
2023-01-17T15:53:42.254Z,98010.88
2023-01-17T15:56:31.923Z,98017.88
2023-01-17T15:59:22.409Z,98019.59
2023-01-17T16:01:56.637Z,98017.22
2023-01-17T16:04:42.228Z,98022.00
2023-01-17T16:07:20.441Z,98024.69
2023-01-17T16:09:48.069Z,98016.91
2023-01-17T16:12:15.265Z,98026.41
2023-01-17T16:15:02.487Z,98033.19
2023-01-17T16:17:30.274Z,98031.31
2023-01-17T16:19:56.947Z,98028.75
2023-01-17T16:22:23.374Z,98030.78
2023-01-17T16:24:49.813Z,98042.13
2023-01-17T16:27:16.233Z,98034.66
2023-01-17T16:29:42.621Z,98030.06
2023-01-17T16:32:09.081Z,98023.34
2023-01-17T16:34:35.911Z,98021.25
2023-01-17T16:37:04.128Z,98027.69
2023-01-17T16:39:31.084Z,98025.31
2023-01-17T16:42:03.642Z,98017.91
2023-01-17T16:44:30.938Z,98027.97
2023-01-17T16:47:01.211Z,98021.81
2023-01-17T16:49:30.830Z,98019.16
2023-01-17T16:51:57.260Z,98020.09
2023-01-17T16:54:23.827Z,98017.84
2023-01-17T16:56:50.369Z,98017.19
2023-01-17T16:59:17.678Z,98027.91
2023-01-17T17:01:45.795Z,98029.63
2023-01-17T17:04:13.020Z,98030.84
2023-01-17T17:06:41.682Z,98025.94
2023-01-17T17:09:08.189Z,98022.03
2023-01-17T17:11:34.581Z,98026.28
2023-01-17T17:14:01.976Z,98029.69
2023-01-17T17:16:33.838Z,98027.31
2023-01-17T17:19:02.985Z,98014.66
2023-01-17T17:21:30.567Z,98017.31
2023-01-17T17:23:58.485Z,98019.53
2023-01-17T17:26:26.868Z,98012.09
2023-01-17T17:28:54.112Z,98007.47
2023-01-17T17:31:20.808Z,98020.06
2023-01-17T17:33:47.760Z,98021.16
2023-01-17T17:36:14.622Z,98020.50
2023-01-17T17:38:51.282Z,98012.94
2023-01-17T17:41:20.582Z,98013.38
2023-01-17T17:43:47.055Z,98010.44
2023-01-17T17:46:15.478Z,98012.44
2023-01-17T17:48:41.893Z,98007.59
2023-01-17T17:51:23.965Z,98018.75
2023-01-17T17:53:52.493Z,98016.00
2023-01-17T17:56:20.837Z,98020.16
2023-01-17T17:58:48.507Z,98019.50
2023-01-17T18:01:15.982Z,98020.59
2023-01-17T18:03:44.081Z,98030.78
2023-01-17T18:06:12.275Z,98028.50
2023-01-17T18:08:39.304Z,98032.91
2023-01-17T18:11:11.097Z,98034.78
2023-01-17T18:13:38.110Z,98033.19
2023-01-17T18:16:10.809Z,98033.69
2023-01-17T18:18:39.591Z,98039.63
2023-01-17T18:21:14.085Z,98042.41
2023-01-17T18:23:43.150Z,98040.81
2023-01-17T18:26:18.460Z,98047.75
2023-01-17T18:28:45.359Z,98053.50
2023-01-17T18:31:11.923Z,98043.81
2023-01-17T18:33:39.604Z,98049.16
2023-01-17T18:36:08.956Z,98061.25
2023-01-17T18:38:38.554Z,98064.91
2023-01-17T18:41:10.878Z,98069.34
2023-01-17T18:43:37.925Z,98060.19
2023-01-17T18:46:04.938Z,98054.41
2023-01-17T18:48:31.700Z,98055.00
2023-01-17T18:51:07.003Z,98063.81
2023-01-17T18:53:35.641Z,98068.88
2023-01-17T18:56:05.935Z,98059.94
2023-01-17T18:58:36.075Z,98065.06
2023-01-17T19:01:25.461Z,98062.69
2023-01-17T19:03:54.996Z,98064.84
2023-01-17T19:06:31.095Z,98073.31
2023-01-17T19:09:01.083Z,98073.81
2023-01-17T19:11:28.376Z,98081.03
2023-01-17T19:13:56.002Z,98074.69
2023-01-17T19:16:30.974Z,98078.34
2023-01-17T19:19:01.962Z,98073.81
2023-01-17T19:21:29.206Z,98070.84
2023-01-17T19:23:58.376Z,98066.78
2023-01-17T19:26:27.147Z,98070.16
2023-01-17T19:28:56.255Z,98081.94
2023-01-17T19:31:26.143Z,98076.78
2023-01-17T19:33:56.804Z,98087.75
2023-01-17T19:36:26.329Z,98092.09
2023-01-17T19:39:03.893Z,98093.97
2023-01-17T19:41:31.248Z,98093.25
2023-01-17T19:44:03.195Z,98096.00
2023-01-17T19:46:30.591Z,98108.38
2023-01-17T19:48:58.098Z,98109.44
2023-01-17T19:51:26.649Z,98120.91
2023-01-17T19:53:56.067Z,98125.56
2023-01-17T19:56:24.414Z,98120.69
2023-01-17T19:58:51.989Z,98118.25
2023-01-17T20:01:21.825Z,98123.69
2023-01-17T20:03:49.002Z,98128.00
2023-01-17T20:06:18.901Z,98134.50
2023-01-17T20:08:45.891Z,98130.81
2023-01-17T20:11:21.242Z,98133.34
2023-01-17T20:13:50.887Z,98131.47
2023-01-17T20:16:18.084Z,98131.75
2023-01-17T20:18:45.596Z,98145.63
2023-01-17T20:21:14.934Z,98142.06
2023-01-17T20:23:42.885Z,98139.38
2023-01-17T20:26:14.695Z,98148.13
2023-01-17T20:28:42.968Z,98148.66
2023-01-17T20:31:15.417Z,98145.59
2023-01-17T20:33:43.353Z,98136.78
2023-01-17T20:36:12.650Z,98142.41
2023-01-17T20:38:45.009Z,98137.59
2023-01-17T20:41:17.531Z,98143.16
2023-01-17T20:43:46.206Z,98146.41
2023-01-17T20:46:13.643Z,98145.41
2023-01-17T20:48:45.903Z,98152.31
2023-01-17T20:51:13.475Z,98162.28
2023-01-17T20:53:41.653Z,98171.91
2023-01-17T20:56:08.787Z,98165.25
2023-01-17T20:58:35.615Z,98160.47
2023-01-17T21:01:02.127Z,98154.84
2023-01-17T21:03:33.712Z,98159.09
2023-01-17T21:06:09.071Z,98154.41
2023-01-17T21:08:37.909Z,98159.63
2023-01-17T21:11:05.523Z,98162.28
2023-01-17T21:13:32.184Z,98164.44
2023-01-17T21:15:58.756Z,98173.97
2023-01-17T21:18:27.005Z,98168.97
2023-01-17T21:20:53.862Z,98173.41
2023-01-17T21:23:20.337Z,98178.44
2023-01-17T21:25:54.786Z,98179.31
2023-01-17T21:28:23.398Z,98179.81
2023-01-17T21:30:49.864Z,98184.59
2023-01-17T21:33:17.385Z,98183.56
2023-01-17T21:35:44.037Z,98188.34
2023-01-17T21:38:10.613Z,98187.25
2023-01-17T21:40:37.035Z,98189.69
2023-01-17T21:43:03.478Z,98179.31
2023-01-17T21:45:32.465Z,98184.13
2023-01-17T21:47:59.175Z,98181.19
2023-01-17T21:50:33.317Z,98186.75
2023-01-17T21:53:00.154Z,98184.59
2023-01-17T21:55:45.332Z,98191.84
2023-01-17T21:58:35.482Z,98182.06
2023-01-17T22:01:15.704Z,98192.59
2023-01-17T22:03:42.740Z,98187.19
2023-01-17T22:06:10.282Z,98194.84
2023-01-17T22:08:37.766Z,98201.19
2023-01-17T22:11:10.874Z,98197.66
2023-01-17T22:13:38.668Z,98198.69
2023-01-17T22:16:07.512Z,98191.75
2023-01-17T22:18:37.139Z,98190.69
2023-01-17T22:21:24.649Z,98191.97
2023-01-17T22:23:59.150Z,98190.31
2023-01-17T22:26:28.746Z,98187.63
2023-01-17T22:28:55.796Z,98184.09
2023-01-17T22:31:24.774Z,98172.63
2023-01-17T22:34:00.670Z,98172.84
2023-01-17T22:36:27.896Z,98167.78
2023-01-17T22:38:54.795Z,98167.06
2023-01-17T22:41:31.097Z,98158.81
2023-01-17T22:43:59.638Z,98160.91
2023-01-17T22:46:28.963Z,98152.63
2023-01-17T22:48:55.776Z,98147.78
2023-01-17T22:51:25.964Z,98145.91
2023-01-17T22:53:55.052Z,98142.44
2023-01-17T22:56:26.927Z,98141.94
2023-01-17T22:58:54.061Z,98134.78
2023-01-17T23:01:24.482Z,98131.53
2023-01-17T23:04:02.223Z,98126.75
2023-01-17T23:06:33.078Z,98124.41
2023-01-17T23:09:02.326Z,98125.91
2023-01-17T23:11:42.696Z,98121.41
2023-01-17T23:14:24.109Z,98128.94
2023-01-17T23:17:20.874Z,98123.88
2023-01-17T23:19:50.843Z,98122.00
2023-01-17T23:22:18.461Z,98115.88
2023-01-17T23:24:52.291Z,98113.50
2023-01-17T23:27:45.087Z,98104.47
2023-01-17T23:30:16.720Z,98108.50
2023-01-17T23:32:46.339Z,98106.28
2023-01-17T23:35:13.356Z,98099.69
2023-01-17T23:37:58.591Z,98094.16
2023-01-17T23:40:25.008Z,98091.19
2023-01-17T23:43:10.044Z,98082.56
2023-01-17T23:45:39.577Z,98083.97
2023-01-17T23:48:09.826Z,98072.00
2023-01-17T23:50:41.806Z,98068.53
2023-01-17T23:53:09.272Z,98068.31
2023-01-17T23:55:38.133Z,98070.13
2023-01-17T23:58:06.363Z,98068.75
